sensor_id;sensor_type;location;lat;lon;timestamp;P1;durP1;ratioP1;P2;durP2;ratioP2
44197;SDS011;30157;55.512;37.764;2023-12-04T00:01:55;12.90;;;5.80;;
44197;SDS011;30157;55.512;37.764;2023-12-04T00:04:21;12.77;;;5.57;;
44197;SDS011;30157;55.512;37.764;2023-12-04T00:06:46;9.82;;;4.75;;
44197;SDS011;30157;55.512;37.764;2023-12-04T00:09:12;14.30;;;5.85;;
44197;SDS011;30157;55.512;37.764;2023-12-04T00:11:38;11.50;;;5.50;;
44197;SDS011;30157;55.512;37.764;2023-12-04T00:14:04;10.57;;;5.65;;
44197;SDS011;30157;55.512;37.764;2023-12-04T00:16:29;11.70;;;6.13;;
44197;SDS011;30157;55.512;37.764;2023-12-04T00:18:59;9.93;;;5.28;;
44197;SDS011;30157;55.512;37.764;2023-12-04T00:21:24;10.95;;;5.35;;
44197;SDS011;30157;55.512;37.764;2023-12-04T00:23:50;10.25;;;5.30;;
44197;SDS011;30157;55.512;37.764;2023-12-04T00:26:16;9.82;;;5.13;;
44197;SDS011;30157;55.512;37.764;2023-12-04T00:28:41;12.75;;;5.97;;
44197;SDS011;30157;55.512;37.764;2023-12-04T00:31:08;12.48;;;5.25;;
44197;SDS011;30157;55.512;37.764;2023-12-04T00:33:34;11.45;;;5.93;;
44197;SDS011;30157;55.512;37.764;2023-12-04T00:35:59;12.40;;;6.05;;
44197;SDS011;30157;55.512;37.764;2023-12-04T00:38:25;11.45;;;6.10;;
44197;SDS011;30157;55.512;37.764;2023-12-04T00:40:51;9.25;;;5.05;;
44197;SDS011;30157;55.512;37.764;2023-12-04T00:43:17;12.52;;;5.30;;
44197;SDS011;30157;55.512;37.764;2023-12-04T00:45:42;12.48;;;6.20;;
44197;SDS011;30157;55.512;37.764;2023-12-04T00:48:08;12.15;;;6.05;;
44197;SDS011;30157;55.512;37.764;2023-12-04T00:50:34;13.90;;;5.78;;
44197;SDS011;30157;55.512;37.764;2023-12-04T00:52:59;11.73;;;6.07;;
44197;SDS011;30157;55.512;37.764;2023-12-04T00:55:25;11.57;;;5.15;;
44197;SDS011;30157;55.512;37.764;2023-12-04T00:57:51;13.27;;;6.00;;
44197;SDS011;30157;55.512;37.764;2023-12-04T01:00:16;9.75;;;5.00;;
44197;SDS011;30157;55.512;37.764;2023-12-04T01:02:42;12.57;;;5.65;;
44197;SDS011;30157;55.512;37.764;2023-12-04T01:05:08;11.25;;;5.45;;
44197;SDS011;30157;55.512;37.764;2023-12-04T01:07:34;12.90;;;5.50;;
44197;SDS011;30157;55.512;37.764;2023-12-04T01:10:00;15.88;;;6.82;;
44197;SDS011;30157;55.512;37.764;2023-12-04T01:12:26;16.10;;;6.95;;
44197;SDS011;30157;55.512;37.764;2023-12-04T01:14:52;15.90;;;6.32;;
44197;SDS011;30157;55.512;37.764;2023-12-04T01:17:18;12.95;;;6.78;;
44197;SDS011;30157;55.512;37.764;2023-12-04T01:19:43;15.15;;;6.70;;
44197;SDS011;30157;55.512;37.764;2023-12-04T01:22:09;14.18;;;6.85;;
44197;SDS011;30157;55.512;37.764;2023-12-04T01:24:35;15.88;;;7.03;;
44197;SDS011;30157;55.512;37.764;2023-12-04T01:27:01;13.00;;;5.78;;
44197;SDS011;30157;55.512;37.764;2023-12-04T01:29:27;15.00;;;7.00;;
44197;SDS011;30157;55.512;37.764;2023-12-04T01:31:52;15.70;;;7.03;;
44197;SDS011;30157;55.512;37.764;2023-12-04T01:34:18;15.10;;;6.78;;
44197;SDS011;30157;55.512;37.764;2023-12-04T01:36:44;15.93;;;7.47;;
44197;SDS011;30157;55.512;37.764;2023-12-04T01:39:10;15.30;;;6.88;;
44197;SDS011;30157;55.512;37.764;2023-12-04T01:41:35;16.23;;;7.50;;
44197;SDS011;30157;55.512;37.764;2023-12-04T01:44:01;17.83;;;9.52;;
44197;SDS011;30157;55.512;37.764;2023-12-04T01:46:27;21.55;;;10.85;;
44197;SDS011;30157;55.512;37.764;2023-12-04T01:48:53;18.15;;;9.70;;
44197;SDS011;30157;55.512;37.764;2023-12-04T01:51:19;16.13;;;8.65;;
44197;SDS011;30157;55.512;37.764;2023-12-04T01:53:45;12.70;;;6.50;;
44197;SDS011;30157;55.512;37.764;2023-12-04T01:56:13;12.25;;;6.38;;
44197;SDS011;30157;55.512;37.764;2023-12-04T01:58:40;10.00;;;5.20;;
44197;SDS011;30157;55.512;37.764;2023-12-04T02:01:06;11.45;;;5.47;;
44197;SDS011;30157;55.512;37.764;2023-12-04T02:03:32;12.10;;;5.22;;
44197;SDS011;30157;55.512;37.764;2023-12-04T02:06:01;11.15;;;4.78;;
44197;SDS011;30157;55.512;37.764;2023-12-04T02:08:29;11.35;;;5.32;;
44197;SDS011;30157;55.512;37.764;2023-12-04T02:10:55;11.85;;;5.65;;
44197;SDS011;30157;55.512;37.764;2023-12-04T02:13:21;11.48;;;5.15;;
44197;SDS011;30157;55.512;37.764;2023-12-04T02:15:49;11.57;;;5.07;;
44197;SDS011;30157;55.512;37.764;2023-12-04T02:18:19;10.02;;;4.53;;
44197;SDS011;30157;55.512;37.764;2023-12-04T02:21:06;10.50;;;4.93;;
44197;SDS011;30157;55.512;37.764;2023-12-04T02:23:32;11.10;;;5.00;;
44197;SDS011;30157;55.512;37.764;2023-12-04T02:26:21;11.30;;;5.10;;
44197;SDS011;30157;55.512;37.764;2023-12-04T02:28:49;8.80;;;4.45;;
44197;SDS011;30157;55.512;37.764;2023-12-04T02:31:20;11.55;;;5.35;;
44197;SDS011;30157;55.512;37.764;2023-12-04T02:33:49;11.75;;;5.65;;
44197;SDS011;30157;55.512;37.764;2023-12-04T02:36:18;10.40;;;4.75;;
44197;SDS011;30157;55.512;37.764;2023-12-04T02:38:45;14.55;;;5.80;;
44197;SDS011;30157;55.512;37.764;2023-12-04T02:41:11;11.60;;;5.75;;
44197;SDS011;30157;55.512;37.764;2023-12-04T02:43:37;12.98;;;6.55;;
44197;SDS011;30157;55.512;37.764;2023-12-04T02:46:03;9.98;;;5.22;;
44197;SDS011;30157;55.512;37.764;2023-12-04T02:48:29;10.88;;;5.32;;
44197;SDS011;30157;55.512;37.764;2023-12-04T02:50:55;12.95;;;5.45;;
44197;SDS011;30157;55.512;37.764;2023-12-04T02:53:20;12.05;;;4.85;;
44197;SDS011;30157;55.512;37.764;2023-12-04T02:55:46;10.35;;;5.28;;
44197;SDS011;30157;55.512;37.764;2023-12-04T02:58:12;11.25;;;5.55;;
44197;SDS011;30157;55.512;37.764;2023-12-04T03:00:37;12.70;;;6.03;;
44197;SDS011;30157;55.512;37.764;2023-12-04T03:03:03;13.95;;;6.60;;
44197;SDS011;30157;55.512;37.764;2023-12-04T03:05:29;15.95;;;7.00;;
44197;SDS011;30157;55.512;37.764;2023-12-04T03:07:54;13.13;;;5.85;;
44197;SDS011;30157;55.512;37.764;2023-12-04T03:10:20;13.02;;;6.03;;
44197;SDS011;30157;55.512;37.764;2023-12-04T03:12:46;11.70;;;5.75;;
44197;SDS011;30157;55.512;37.764;2023-12-04T03:15:11;12.82;;;6.28;;
44197;SDS011;30157;55.512;37.764;2023-12-04T03:17:38;14.52;;;6.22;;
44197;SDS011;30157;55.512;37.764;2023-12-04T03:20:04;14.20;;;6.05;;
44197;SDS011;30157;55.512;37.764;2023-12-04T03:22:34;11.63;;;5.68;;
44197;SDS011;30157;55.512;37.764;2023-12-04T03:25:02;13.02;;;6.18;;
44197;SDS011;30157;55.512;37.764;2023-12-04T03:27:32;12.38;;;5.95;;
44197;SDS011;30157;55.512;37.764;2023-12-04T03:29:58;13.57;;;6.57;;
44197;SDS011;30157;55.512;37.764;2023-12-04T03:32:24;12.68;;;5.72;;
44197;SDS011;30157;55.512;37.764;2023-12-04T03:34:49;13.70;;;6.30;;
44197;SDS011;30157;55.512;37.764;2023-12-04T03:37:15;12.00;;;5.57;;
44197;SDS011;30157;55.512;37.764;2023-12-04T03:39:41;11.80;;;5.78;;
44197;SDS011;30157;55.512;37.764;2023-12-04T03:42:07;12.68;;;5.55;;
44197;SDS011;30157;55.512;37.764;2023-12-04T03:44:32;15.63;;;6.88;;
44197;SDS011;30157;55.512;37.764;2023-12-04T03:46:58;12.55;;;6.07;;
44197;SDS011;30157;55.512;37.764;2023-12-04T03:49:24;14.13;;;6.68;;
44197;SDS011;30157;55.512;37.764;2023-12-04T03:51:50;14.07;;;6.55;;
44197;SDS011;30157;55.512;37.764;2023-12-04T03:54:15;11.70;;;5.68;;
44197;SDS011;30157;55.512;37.764;2023-12-04T03:56:41;15.18;;;6.80;;
44197;SDS011;30157;55.512;37.764;2023-12-04T03:59:08;12.48;;;5.60;;
44197;SDS011;30157;55.512;37.764;2023-12-04T04:01:35;12.93;;;5.82;;
44197;SDS011;30157;55.512;37.764;2023-12-04T04:04:01;15.20;;;6.90;;
44197;SDS011;30157;55.512;37.764;2023-12-04T04:06:27;14.35;;;5.65;;
44197;SDS011;30157;55.512;37.764;2023-12-04T04:08:53;15.80;;;7.25;;
44197;SDS011;30157;55.512;37.764;2023-12-04T04:11:18;14.25;;;6.43;;
44197;SDS011;30157;55.512;37.764;2023-12-04T04:13:44;12.38;;;6.10;;
44197;SDS011;30157;55.512;37.764;2023-12-04T04:16:14;9.45;;;4.65;;
44197;SDS011;30157;55.512;37.764;2023-12-04T04:18:42;13.32;;;6.32;;
44197;SDS011;30157;55.512;37.764;2023-12-04T04:21:09;15.20;;;6.30;;
44197;SDS011;30157;55.512;37.764;2023-12-04T04:23:35;12.60;;;5.32;;
44197;SDS011;30157;55.512;37.764;2023-12-04T04:26:01;15.98;;;7.13;;
44197;SDS011;30157;55.512;37.764;2023-12-04T04:28:28;15.73;;;6.75;;
44197;SDS011;30157;55.512;37.764;2023-12-04T04:30:54;17.17;;;7.18;;
44197;SDS011;30157;55.512;37.764;2023-12-04T04:33:19;11.70;;;5.55;;
44197;SDS011;30157;55.512;37.764;2023-12-04T04:35:45;13.68;;;6.32;;
44197;SDS011;30157;55.512;37.764;2023-12-04T04:38:11;17.65;;;7.45;;
44197;SDS011;30157;55.512;37.764;2023-12-04T04:40:37;14.10;;;6.60;;
44197;SDS011;30157;55.512;37.764;2023-12-04T04:43:08;16.20;;;7.15;;
44197;SDS011;30157;55.512;37.764;2023-12-04T04:45:36;18.98;;;7.93;;
44197;SDS011;30157;55.512;37.764;2023-12-04T04:48:02;14.25;;;6.05;;
44197;SDS011;30157;55.512;37.764;2023-12-04T04:50:28;14.88;;;6.55;;
44197;SDS011;30157;55.512;37.764;2023-12-04T04:52:54;13.30;;;6.63;;
44197;SDS011;30157;55.512;37.764;2023-12-04T04:55:20;16.27;;;6.72;;
44197;SDS011;30157;55.512;37.764;2023-12-04T04:57:46;14.25;;;6.10;;
44197;SDS011;30157;55.512;37.764;2023-12-04T05:00:12;17.70;;;7.75;;
44197;SDS011;30157;55.512;37.764;2023-12-04T05:02:38;16.13;;;7.03;;
44197;SDS011;30157;55.512;37.764;2023-12-04T05:05:03;18.30;;;6.90;;
44197;SDS011;30157;55.512;37.764;2023-12-04T05:07:31;17.05;;;8.15;;
44197;SDS011;30157;55.512;37.764;2023-12-04T05:09:57;17.33;;;8.27;;
44197;SDS011;30157;55.512;37.764;2023-12-04T05:12:23;17.60;;;7.80;;
44197;SDS011;30157;55.512;37.764;2023-12-04T05:14:48;15.43;;;7.45;;
44197;SDS011;30157;55.512;37.764;2023-12-04T05:17:14;18.73;;;8.55;;
44197;SDS011;30157;55.512;37.764;2023-12-04T05:19:40;19.20;;;8.23;;
44197;SDS011;30157;55.512;37.764;2023-12-04T05:22:06;18.25;;;8.18;;
44197;SDS011;30157;55.512;37.764;2023-12-04T05:24:32;14.50;;;6.72;;
44197;SDS011;30157;55.512;37.764;2023-12-04T05:26:58;17.30;;;7.32;;
44197;SDS011;30157;55.512;37.764;2023-12-04T05:29:23;15.95;;;7.18;;
44197;SDS011;30157;55.512;37.764;2023-12-04T05:31:49;21.58;;;9.38;;
44197;SDS011;30157;55.512;37.764;2023-12-04T05:34:15;16.45;;;7.70;;
44197;SDS011;30157;55.512;37.764;2023-12-04T05:36:40;18.38;;;8.27;;
44197;SDS011;30157;55.512;37.764;2023-12-04T05:39:06;15.93;;;7.72;;
44197;SDS011;30157;55.512;37.764;2023-12-04T05:41:32;18.40;;;7.40;;
44197;SDS011;30157;55.512;37.764;2023-12-04T05:43:58;16.45;;;7.75;;
44197;SDS011;30157;55.512;37.764;2023-12-04T05:46:23;19.05;;;7.75;;
44197;SDS011;30157;55.512;37.764;2023-12-04T05:48:49;15.35;;;6.85;;
44197;SDS011;30157;55.512;37.764;2023-12-04T05:51:15;18.45;;;7.32;;
44197;SDS011;30157;55.512;37.764;2023-12-04T05:53:41;17.63;;;8.05;;
44197;SDS011;30157;55.512;37.764;2023-12-04T05:56:07;14.48;;;7.40;;
44197;SDS011;30157;55.512;37.764;2023-12-04T05:58:34;18.23;;;8.77;;
44197;SDS011;30157;55.512;37.764;2023-12-04T06:01:00;18.95;;;8.60;;
44197;SDS011;30157;55.512;37.764;2023-12-04T06:03:26;17.35;;;7.18;;
44197;SDS011;30157;55.512;37.764;2023-12-04T06:05:52;16.58;;;7.85;;
44197;SDS011;30157;55.512;37.764;2023-12-04T06:08:18;14.88;;;6.55;;
44197;SDS011;30157;55.512;37.764;2023-12-04T06:10:43;18.08;;;7.78;;
44197;SDS011;30157;55.512;37.764;2023-12-04T06:13:09;20.17;;;9.43;;
44197;SDS011;30157;55.512;37.764;2023-12-04T06:15:35;21.45;;;9.45;;
44197;SDS011;30157;55.512;37.764;2023-12-04T06:18:00;13.82;;;6.45;;
44197;SDS011;30157;55.512;37.764;2023-12-04T06:20:26;19.60;;;8.70;;
44197;SDS011;30157;55.512;37.764;2023-12-04T06:22:52;20.33;;;9.02;;
44197;SDS011;30157;55.512;37.764;2023-12-04T06:25:18;18.30;;;8.60;;
44197;SDS011;30157;55.512;37.764;2023-12-04T06:27:45;16.00;;;7.55;;
44197;SDS011;30157;55.512;37.764;2023-12-04T06:30:12;19.13;;;9.02;;
44197;SDS011;30157;55.512;37.764;2023-12-04T06:32:38;18.85;;;9.23;;
44197;SDS011;30157;55.512;37.764;2023-12-04T06:35:04;18.27;;;8.20;;
44197;SDS011;30157;55.512;37.764;2023-12-04T06:37:30;20.55;;;8.45;;
44197;SDS011;30157;55.512;37.764;2023-12-04T06:39:58;18.42;;;9.32;;
44197;SDS011;30157;55.512;37.764;2023-12-04T06:42:25;19.05;;;9.18;;
44197;SDS011;30157;55.512;37.764;2023-12-04T06:44:51;16.73;;;7.18;;
44197;SDS011;30157;55.512;37.764;2023-12-04T06:47:17;20.05;;;7.70;;
44197;SDS011;30157;55.512;37.764;2023-12-04T06:49:47;18.05;;;7.05;;
44197;SDS011;30157;55.512;37.764;2023-12-04T06:52:13;22.23;;;9.35;;
44197;SDS011;30157;55.512;37.764;2023-12-04T06:54:39;22.80;;;9.48;;
44197;SDS011;30157;55.512;37.764;2023-12-04T06:57:04;20.40;;;9.98;;
44197;SDS011;30157;55.512;37.764;2023-12-04T06:59:30;21.58;;;9.25;;
44197;SDS011;30157;55.512;37.764;2023-12-04T07:01:56;22.67;;;9.82;;
44197;SDS011;30157;55.512;37.764;2023-12-04T07:04:22;16.80;;;7.10;;
44197;SDS011;30157;55.512;37.764;2023-12-04T07:06:48;19.55;;;8.57;;
44197;SDS011;30157;55.512;37.764;2023-12-04T07:09:14;19.02;;;8.52;;
44197;SDS011;30157;55.512;37.764;2023-12-04T07:11:40;16.42;;;7.38;;
44197;SDS011;30157;55.512;37.764;2023-12-04T07:14:06;19.63;;;8.70;;
44197;SDS011;30157;55.512;37.764;2023-12-04T07:16:38;19.95;;;9.35;;
44197;SDS011;30157;55.512;37.764;2023-12-04T07:19:05;18.20;;;7.95;;
44197;SDS011;30157;55.512;37.764;2023-12-04T07:21:30;22.17;;;10.38;;
44197;SDS011;30157;55.512;37.764;2023-12-04T07:23:56;20.27;;;9.40;;
44197;SDS011;30157;55.512;37.764;2023-12-04T07:26:22;20.15;;;9.52;;
44197;SDS011;30157;55.512;37.764;2023-12-04T07:28:47;22.80;;;9.43;;
44197;SDS011;30157;55.512;37.764;2023-12-04T07:31:13;18.25;;;8.20;;
44197;SDS011;30157;55.512;37.764;2023-12-04T07:33:39;22.52;;;9.88;;
44197;SDS011;30157;55.512;37.764;2023-12-04T07:36:05;17.40;;;8.40;;
44197;SDS011;30157;55.512;37.764;2023-12-04T07:38:31;17.00;;;8.05;;
44197;SDS011;30157;55.512;37.764;2023-12-04T07:40:56;17.67;;;8.73;;
44197;SDS011;30157;55.512;37.764;2023-12-04T07:43:22;16.63;;;6.80;;
44197;SDS011;30157;55.512;37.764;2023-12-04T07:45:48;17.58;;;7.13;;
44197;SDS011;30157;55.512;37.764;2023-12-04T07:48:13;19.77;;;7.90;;
44197;SDS011;30157;55.512;37.764;2023-12-04T07:50:39;16.77;;;5.55;;
44197;SDS011;30157;55.512;37.764;2023-12-04T07:53:05;19.10;;;8.35;;
44197;SDS011;30157;55.512;37.764;2023-12-04T07:55:33;21.08;;;8.80;;
44197;SDS011;30157;55.512;37.764;2023-12-04T07:57:59;15.45;;;6.88;;
44197;SDS011;30157;55.512;37.764;2023-12-04T08:00:24;20.63;;;9.35;;
44197;SDS011;30157;55.512;37.764;2023-12-04T08:02:51;19.75;;;8.35;;
44197;SDS011;30157;55.512;37.764;2023-12-04T08:05:17;19.02;;;8.02;;
44197;SDS011;30157;55.512;37.764;2023-12-04T08:07:43;22.08;;;9.15;;
44197;SDS011;30157;55.512;37.764;2023-12-04T08:10:10;20.70;;;9.23;;
44197;SDS011;30157;55.512;37.764;2023-12-04T08:12:36;21.77;;;9.98;;
44197;SDS011;30157;55.512;37.764;2023-12-04T08:15:03;22.67;;;9.57;;
44197;SDS011;30157;55.512;37.764;2023-12-04T08:17:33;19.92;;;8.88;;
44197;SDS011;30157;55.512;37.764;2023-12-04T08:19:59;18.75;;;8.52;;
44197;SDS011;30157;55.512;37.764;2023-12-04T08:22:25;25.00;;;9.88;;
44197;SDS011;30157;55.512;37.764;2023-12-04T08:24:51;25.95;;;10.40;;
44197;SDS011;30157;55.512;37.764;2023-12-04T08:27:17;22.63;;;9.07;;
44197;SDS011;30157;55.512;37.764;2023-12-04T08:29:43;17.92;;;8.50;;
44197;SDS011;30157;55.512;37.764;2023-12-04T08:32:08;22.20;;;9.63;;
44197;SDS011;30157;55.512;37.764;2023-12-04T08:34:34;19.20;;;9.23;;
44197;SDS011;30157;55.512;37.764;2023-12-04T08:37:00;21.48;;;9.23;;
44197;SDS011;30157;55.512;37.764;2023-12-04T08:39:26;21.75;;;9.32;;
44197;SDS011;30157;55.512;37.764;2023-12-04T08:41:52;20.27;;;8.95;;
44197;SDS011;30157;55.512;37.764;2023-12-04T08:44:18;19.58;;;9.15;;
44197;SDS011;30157;55.512;37.764;2023-12-04T08:46:44;17.58;;;8.15;;
44197;SDS011;30157;55.512;37.764;2023-12-04T08:49:10;17.60;;;8.23;;
44197;SDS011;30157;55.512;37.764;2023-12-04T08:51:35;18.88;;;8.35;;
44197;SDS011;30157;55.512;37.764;2023-12-04T08:54:01;19.00;;;8.48;;
44197;SDS011;30157;55.512;37.764;2023-12-04T08:56:28;14.70;;;6.95;;
44197;SDS011;30157;55.512;37.764;2023-12-04T08:58:54;16.17;;;7.40;;
44197;SDS011;30157;55.512;37.764;2023-12-04T09:01:20;14.57;;;6.53;;
44197;SDS011;30157;55.512;37.764;2023-12-04T09:03:46;14.52;;;6.55;;
44197;SDS011;30157;55.512;37.764;2023-12-04T09:06:12;14.02;;;6.40;;
44197;SDS011;30157;55.512;37.764;2023-12-04T09:08:38;17.02;;;6.82;;
44197;SDS011;30157;55.512;37.764;2023-12-04T09:11:03;11.88;;;6.22;;
44197;SDS011;30157;55.512;37.764;2023-12-04T09:13:29;16.25;;;7.45;;
44197;SDS011;30157;55.512;37.764;2023-12-04T09:15:57;13.10;;;5.65;;
44197;SDS011;30157;55.512;37.764;2023-12-04T09:18:22;14.35;;;7.13;;
44197;SDS011;30157;55.512;37.764;2023-12-04T09:20:48;13.60;;;6.80;;
44197;SDS011;30157;55.512;37.764;2023-12-04T09:23:14;13.38;;;6.40;;
44197;SDS011;30157;55.512;37.764;2023-12-04T09:25:39;14.65;;;6.47;;
44197;SDS011;30157;55.512;37.764;2023-12-04T09:28:05;15.50;;;7.07;;
44197;SDS011;30157;55.512;37.764;2023-12-04T09:30:31;18.45;;;8.43;;
44197;SDS011;30157;55.512;37.764;2023-12-04T09:32:57;18.35;;;8.18;;
44197;SDS011;30157;55.512;37.764;2023-12-04T09:35:22;16.35;;;7.53;;
44197;SDS011;30157;55.512;37.764;2023-12-04T09:37:48;18.30;;;8.60;;
44197;SDS011;30157;55.512;37.764;2023-12-04T09:40:16;18.50;;;7.07;;
44197;SDS011;30157;55.512;37.764;2023-12-04T09:42:43;17.25;;;7.28;;
44197;SDS011;30157;55.512;37.764;2023-12-04T09:45:08;15.60;;;7.05;;
44197;SDS011;30157;55.512;37.764;2023-12-04T09:47:35;14.65;;;6.55;;
44197;SDS011;30157;55.512;37.764;2023-12-04T09:50:02;17.92;;;7.95;;
44197;SDS011;30157;55.512;37.764;2023-12-04T09:52:29;15.55;;;7.13;;
44197;SDS011;30157;55.512;37.764;2023-12-04T09:54:56;13.63;;;6.80;;
44197;SDS011;30157;55.512;37.764;2023-12-04T09:57:23;17.20;;;7.68;;
44197;SDS011;30157;55.512;37.764;2023-12-04T09:59:50;14.85;;;6.88;;
44197;SDS011;30157;55.512;37.764;2023-12-04T10:02:17;16.42;;;7.82;;
44197;SDS011;30157;55.512;37.764;2023-12-04T10:04:43;17.95;;;8.18;;
44197;SDS011;30157;55.512;37.764;2023-12-04T10:07:10;14.32;;;7.32;;
44197;SDS011;30157;55.512;37.764;2023-12-04T10:09:35;19.80;;;8.50;;
44197;SDS011;30157;55.512;37.764;2023-12-04T10:12:01;17.52;;;8.30;;
44197;SDS011;30157;55.512;37.764;2023-12-04T10:14:27;21.08;;;8.18;;
44197;SDS011;30157;55.512;37.764;2023-12-04T10:16:52;16.85;;;8.50;;
44197;SDS011;30157;55.512;37.764;2023-12-04T10:19:23;17.70;;;7.93;;
44197;SDS011;30157;55.512;37.764;2023-12-04T10:21:55;24.30;;;9.43;;
44197;SDS011;30157;55.512;37.764;2023-12-04T10:24:32;24.52;;;10.23;;
44197;SDS011;30157;55.512;37.764;2023-12-04T10:27:04;19.98;;;9.45;;
44197;SDS011;30157;55.512;37.764;2023-12-04T10:32:12;23.25;;;10.02;;
44197;SDS011;30157;55.512;37.764;2023-12-04T10:34:38;27.15;;;11.10;;
44197;SDS011;30157;55.512;37.764;2023-12-04T10:37:08;27.88;;;11.02;;
44197;SDS011;30157;55.512;37.764;2023-12-04T10:39:45;21.73;;;9.48;;
44197;SDS011;30157;55.512;37.764;2023-12-04T10:42:15;21.45;;;10.65;;
44197;SDS011;30157;55.512;37.764;2023-12-04T10:44:49;24.65;;;10.23;;
44197;SDS011;30157;55.512;37.764;2023-12-04T10:47:14;25.65;;;10.38;;
44197;SDS011;30157;55.512;37.764;2023-12-04T10:49:40;22.52;;;10.70;;
44197;SDS011;30157;55.512;37.764;2023-12-04T10:52:08;21.30;;;9.85;;
44197;SDS011;30157;55.512;37.764;2023-12-04T10:54:34;23.55;;;10.52;;
44197;SDS011;30157;55.512;37.764;2023-12-04T10:57:00;22.15;;;10.35;;
44197;SDS011;30157;55.512;37.764;2023-12-04T10:59:32;22.73;;;9.52;;
44197;SDS011;30157;55.512;37.764;2023-12-04T11:02:01;20.55;;;8.70;;
44197;SDS011;30157;55.512;37.764;2023-12-04T11:04:31;26.50;;;10.32;;
44197;SDS011;30157;55.512;37.764;2023-12-04T11:06:58;23.23;;;10.20;;
44197;SDS011;30157;55.512;37.764;2023-12-04T11:09:25;28.40;;;11.73;;
44197;SDS011;30157;55.512;37.764;2023-12-04T11:11:53;25.00;;;11.05;;
44197;SDS011;30157;55.512;37.764;2023-12-04T11:14:24;25.70;;;11.55;;
44197;SDS011;30157;55.512;37.764;2023-12-04T11:16:54;23.88;;;10.07;;
44197;SDS011;30157;55.512;37.764;2023-12-04T11:19:27;27.10;;;11.43;;
44197;SDS011;30157;55.512;37.764;2023-12-04T11:21:58;27.60;;;11.30;;
44197;SDS011;30157;55.512;37.764;2023-12-04T11:24:24;24.90;;;10.30;;
44197;SDS011;30157;55.512;37.764;2023-12-04T11:26:50;24.17;;;10.38;;
44197;SDS011;30157;55.512;37.764;2023-12-04T11:29:17;23.55;;;10.10;;
44197;SDS011;30157;55.512;37.764;2023-12-04T11:31:44;23.80;;;10.75;;
44197;SDS011;30157;55.512;37.764;2023-12-04T11:34:11;23.00;;;10.25;;
44197;SDS011;30157;55.512;37.764;2023-12-04T11:36:38;26.98;;;10.80;;
44197;SDS011;30157;55.512;37.764;2023-12-04T11:39:08;22.55;;;10.38;;
44197;SDS011;30157;55.512;37.764;2023-12-04T11:41:36;22.60;;;10.07;;
44197;SDS011;30157;55.512;37.764;2023-12-04T11:44:02;21.55;;;10.55;;
44197;SDS011;30157;55.512;37.764;2023-12-04T11:46:28;19.90;;;9.20;;
44197;SDS011;30157;55.512;37.764;2023-12-04T11:51:58;22.58;;;10.07;;
44197;SDS011;30157;55.512;37.764;2023-12-04T11:54:26;24.50;;;10.88;;
44197;SDS011;30157;55.512;37.764;2023-12-04T11:57:10;25.80;;;10.55;;
44197;SDS011;30157;55.512;37.764;2023-12-04T11:59:49;21.92;;;9.65;;
44197;SDS011;30157;55.512;37.764;2023-12-04T12:02:15;22.13;;;9.43;;
44197;SDS011;30157;55.512;37.764;2023-12-04T12:04:42;23.80;;;10.43;;
44197;SDS011;30157;55.512;37.764;2023-12-04T12:07:08;22.67;;;9.68;;
44197;SDS011;30157;55.512;37.764;2023-12-04T12:09:34;24.10;;;9.35;;
44197;SDS011;30157;55.512;37.764;2023-12-04T12:12:01;23.23;;;10.55;;
44197;SDS011;30157;55.512;37.764;2023-12-04T12:14:28;24.75;;;9.90;;
44197;SDS011;30157;55.512;37.764;2023-12-04T12:16:54;20.45;;;9.18;;
44197;SDS011;30157;55.512;37.764;2023-12-04T12:19:21;21.17;;;10.23;;
44197;SDS011;30157;55.512;37.764;2023-12-04T12:21:47;24.45;;;9.63;;
44197;SDS011;30157;55.512;37.764;2023-12-04T12:24:17;22.77;;;10.52;;
44197;SDS011;30157;55.512;37.764;2023-12-04T12:26:44;23.88;;;9.70;;
44197;SDS011;30157;55.512;37.764;2023-12-04T12:29:10;23.23;;;10.82;;
44197;SDS011;30157;55.512;37.764;2023-12-04T12:31:37;25.75;;;10.98;;
44197;SDS011;30157;55.512;37.764;2023-12-04T12:34:03;21.42;;;9.80;;
44197;SDS011;30157;55.512;37.764;2023-12-04T12:36:29;24.95;;;10.13;;
44197;SDS011;30157;55.512;37.764;2023-12-04T12:39:01;23.70;;;10.55;;
44197;SDS011;30157;55.512;37.764;2023-12-04T12:41:29;22.35;;;9.68;;
44197;SDS011;30157;55.512;37.764;2023-12-04T12:43:56;20.05;;;8.85;;
44197;SDS011;30157;55.512;37.764;2023-12-04T12:46:22;26.40;;;10.77;;
44197;SDS011;30157;55.512;37.764;2023-12-04T12:48:47;24.33;;;10.07;;
44197;SDS011;30157;55.512;37.764;2023-12-04T12:51:13;24.55;;;10.80;;
44197;SDS011;30157;55.512;37.764;2023-12-04T12:53:40;24.33;;;10.48;;
44197;SDS011;30157;55.512;37.764;2023-12-04T12:56:06;23.50;;;10.27;;
44197;SDS011;30157;55.512;37.764;2023-12-04T12:58:33;21.35;;;9.80;;
44197;SDS011;30157;55.512;37.764;2023-12-04T13:00:59;25.35;;;10.50;;
44197;SDS011;30157;55.512;37.764;2023-12-04T13:03:26;22.52;;;10.50;;
44197;SDS011;30157;55.512;37.764;2023-12-04T13:05:56;27.73;;;11.80;;
44197;SDS011;30157;55.512;37.764;2023-12-04T13:08:21;21.10;;;9.23;;
44197;SDS011;30157;55.512;37.764;2023-12-04T13:10:47;25.02;;;11.20;;
44197;SDS011;30157;55.512;37.764;2023-12-04T13:13:13;25.92;;;11.25;;
44197;SDS011;30157;55.512;37.764;2023-12-04T13:15:40;24.77;;;11.15;;
44197;SDS011;30157;55.512;37.764;2023-12-04T13:18:06;24.45;;;11.23;;
44197;SDS011;30157;55.512;37.764;2023-12-04T13:20:32;21.75;;;10.10;;
44197;SDS011;30157;55.512;37.764;2023-12-04T13:23:00;24.27;;;11.18;;
44197;SDS011;30157;55.512;37.764;2023-12-04T13:25:26;24.30;;;11.00;;
44197;SDS011;30157;55.512;37.764;2023-12-04T13:27:53;24.95;;;10.68;;
44197;SDS011;30157;55.512;37.764;2023-12-04T13:30:18;24.00;;;10.68;;
44197;SDS011;30157;55.512;37.764;2023-12-04T13:32:45;26.08;;;10.98;;
44197;SDS011;30157;55.512;37.764;2023-12-04T13:35:11;22.85;;;10.02;;
44197;SDS011;30157;55.512;37.764;2023-12-04T13:37:37;28.75;;;11.38;;
44197;SDS011;30157;55.512;37.764;2023-12-04T13:40:05;26.92;;;10.57;;
44197;SDS011;30157;55.512;37.764;2023-12-04T13:42:41;22.80;;;9.65;;
44197;SDS011;30157;55.512;37.764;2023-12-04T13:45:25;23.23;;;10.50;;
44197;SDS011;30157;55.512;37.764;2023-12-04T13:47:50;22.25;;;10.70;;
44197;SDS011;30157;55.512;37.764;2023-12-04T13:50:18;20.35;;;9.68;;
44197;SDS011;30157;55.512;37.764;2023-12-04T13:52:44;24.70;;;10.10;;
44197;SDS011;30157;55.512;37.764;2023-12-04T13:55:10;30.10;;;11.10;;
44197;SDS011;30157;55.512;37.764;2023-12-04T13:57:46;25.83;;;10.50;;
44197;SDS011;30157;55.512;37.764;2023-12-04T14:00:34;25.88;;;11.50;;
44197;SDS011;30157;55.512;37.764;2023-12-04T14:03:00;27.38;;;11.77;;
44197;SDS011;30157;55.512;37.764;2023-12-04T14:05:30;24.25;;;11.10;;
44197;SDS011;30157;55.512;37.764;2023-12-04T14:07:56;23.15;;;9.57;;
44197;SDS011;30157;55.512;37.764;2023-12-04T14:10:24;26.98;;;11.40;;
44197;SDS011;30157;55.512;37.764;2023-12-04T14:12:54;21.80;;;9.88;;
44197;SDS011;30157;55.512;37.764;2023-12-04T14:15:20;25.33;;;9.75;;
44197;SDS011;30157;55.512;37.764;2023-12-04T14:17:46;24.13;;;10.85;;
44197;SDS011;30157;55.512;37.764;2023-12-04T14:20:12;25.38;;;11.10;;
44197;SDS011;30157;55.512;37.764;2023-12-04T14:22:42;26.85;;;11.02;;